createdAt,value
2018-06-18T00:01:47.688Z,4.70
2018-06-18T00:04:14.602Z,4.23
2018-06-18T00:06:41.532Z,3.63
2018-06-18T00:09:11.412Z,4.33
2018-06-18T00:11:38.309Z,4.20
2018-06-18T00:14:05.237Z,4.47
2018-06-18T00:16:32.145Z,4.40
2018-06-18T00:18:59.077Z,3.73
2018-06-18T00:21:26.002Z,4.40
2018-06-18T00:23:52.924Z,4.13
2018-06-18T00:26:19.831Z,4.50
2018-06-18T00:28:46.734Z,4.40
2018-06-18T00:31:13.636Z,4.10
2018-06-18T00:33:40.536Z,5.10
2018-06-18T00:36:07.437Z,4.27
2018-06-18T00:38:34.347Z,4.50
2018-06-18T00:41:01.282Z,4.43
2018-06-18T00:43:28.208Z,4.07
2018-06-18T00:45:55.108Z,4.27
2018-06-18T00:48:22.016Z,4.73
2018-06-18T00:50:48.936Z,4.40
2018-06-18T00:53:15.845Z,4.57
2018-06-18T00:55:54.440Z,4.93
2018-06-18T00:58:21.312Z,4.73
2018-06-18T01:00:48.212Z,4.97
2018-06-18T01:03:15.133Z,4.87
2018-06-18T01:05:42.035Z,5.13
2018-06-18T01:08:08.929Z,4.90
2018-06-18T01:10:35.832Z,4.77
2018-06-18T01:13:02.797Z,5.07
2018-06-18T01:15:29.712Z,5.57
2018-06-18T01:17:56.609Z,5.03
2018-06-18T01:20:23.605Z,4.93
2018-06-18T01:23:14.514Z,5.13
2018-06-18T01:25:41.441Z,4.23
2018-06-18T01:28:08.329Z,5.33
2018-06-18T01:30:35.785Z,5.00
2018-06-18T01:33:02.680Z,4.87
2018-06-18T01:35:29.681Z,5.43
2018-06-18T01:37:56.567Z,5.20
2018-06-18T01:40:23.588Z,4.70
2018-06-18T01:42:50.480Z,5.40
2018-06-18T01:45:17.381Z,5.40
2018-06-18T01:47:44.284Z,5.70
2018-06-18T01:50:11.189Z,5.13
2018-06-18T01:52:38.096Z,5.50
2018-06-18T01:55:05.025Z,5.77
2018-06-18T01:57:31.920Z,5.43
2018-06-18T01:59:58.821Z,4.97
2018-06-18T02:02:25.713Z,5.43
2018-06-18T02:04:52.614Z,5.30
2018-06-18T02:07:19.504Z,5.70
2018-06-18T02:09:46.408Z,5.80
2018-06-18T02:12:13.301Z,5.83
2018-06-18T02:14:40.216Z,5.43
2018-06-18T02:17:07.104Z,6.13
2018-06-18T02:19:33.997Z,6.30
2018-06-18T02:22:00.916Z,6.10
2018-06-18T02:24:27.813Z,5.67
2018-06-18T02:27:00.394Z,5.80
2018-06-18T02:30:34.704Z,6.13
2018-06-18T02:33:07.426Z,6.40
2018-06-18T02:35:40.112Z,6.30
2018-06-18T02:38:12.800Z,7.07
2018-06-18T02:40:45.950Z,5.93
2018-06-18T02:43:14.020Z,6.03
2018-06-18T02:45:40.969Z,6.30
2018-06-18T02:48:07.852Z,5.93
2018-06-18T02:50:34.773Z,6.00
2018-06-18T02:53:01.685Z,6.70
2018-06-18T02:55:28.617Z,6.47
2018-06-18T02:57:55.553Z,7.00
2018-06-18T03:00:22.644Z,7.10
2018-06-18T03:02:49.581Z,6.70
2018-06-18T03:05:16.493Z,7.10
2018-06-18T03:07:43.406Z,7.83
2018-06-18T03:10:10.317Z,7.33
2018-06-18T03:12:37.237Z,7.13
2018-06-18T03:15:04.183Z,8.00
2018-06-18T03:17:31.103Z,6.77
2018-06-18T03:20:03.881Z,6.90
2018-06-18T03:22:36.509Z,6.70
2018-06-18T03:25:09.265Z,7.10
2018-06-18T03:27:42.013Z,6.97
2018-06-18T03:30:08.970Z,6.90
2018-06-18T03:32:35.888Z,7.23
2018-06-18T03:35:02.837Z,7.77
2018-06-18T03:37:29.753Z,7.27
2018-06-18T03:39:56.669Z,6.90
2018-06-18T03:42:23.583Z,7.53
2018-06-18T03:44:59.884Z,6.63
2018-06-18T03:47:28.586Z,6.10
2018-06-18T03:49:55.497Z,6.87
2018-06-18T03:52:22.442Z,6.83
2018-06-18T03:54:51.166Z,6.63
2018-06-18T03:57:18.570Z,7.10
2018-06-18T03:59:45.534Z,7.07
2018-06-18T04:02:29.850Z,6.80
2018-06-18T04:05:02.477Z,7.17
2018-06-18T04:07:39.951Z,7.10
2018-06-18T04:10:12.545Z,6.93
2018-06-18T04:12:39.512Z,7.00
2018-06-18T04:15:06.461Z,7.17
2018-06-18T04:17:33.414Z,7.57
2018-06-18T04:20:00.329Z,7.50
2018-06-18T04:22:27.277Z,6.83
2018-06-18T04:24:54.218Z,7.13
2018-06-18T04:27:21.153Z,7.80
2018-06-18T04:29:48.118Z,7.40
2018-06-18T04:32:15.051Z,7.60
2018-06-18T04:34:46.958Z,7.73
2018-06-18T04:37:13.910Z,7.47
2018-06-18T04:39:40.841Z,7.17
2018-06-18T04:42:13.536Z,7.80
2018-06-18T04:44:46.344Z,7.30
2018-06-18T04:47:19.096Z,7.20
2018-06-18T04:49:51.873Z,6.73
2018-06-18T04:52:18.838Z,7.40
2018-06-18T04:54:45.748Z,7.50
2018-06-18T04:57:12.683Z,6.57
2018-06-18T04:59:43.409Z,7.10
2018-06-18T05:02:10.345Z,7.10
2018-06-18T05:04:37.291Z,6.70
2018-06-18T05:07:04.337Z,6.63
2018-06-18T05:09:48.373Z,7.13
2018-06-18T05:12:15.305Z,7.23
2018-06-18T05:14:42.240Z,7.27
2018-06-18T05:17:09.177Z,7.50
2018-06-18T05:19:36.101Z,7.33
2018-06-18T05:22:03.039Z,7.50
2018-06-18T05:24:30.253Z,8.20
2018-06-18T05:26:58.013Z,8.00
2018-06-18T05:29:25.800Z,7.23
2018-06-18T05:31:59.554Z,7.10
2018-06-18T05:34:28.789Z,7.80
2018-06-18T05:36:58.025Z,7.83
2018-06-18T05:39:24.973Z,7.40
2018-06-18T05:41:51.909Z,7.57
2018-06-18T05:44:18.846Z,7.53
2018-06-18T05:46:45.765Z,7.47
2018-06-18T05:49:12.729Z,7.60
2018-06-18T05:51:39.654Z,7.97
2018-06-18T05:54:06.599Z,7.83
2018-06-18T05:56:33.524Z,7.70
2018-06-18T05:59:00.450Z,7.77
2018-06-18T06:01:27.374Z,7.70
2018-06-18T06:03:54.785Z,7.27
2018-06-18T06:06:21.733Z,7.57
2018-06-18T06:08:48.660Z,7.97
2018-06-18T06:11:15.614Z,8.40
2018-06-18T06:13:42.537Z,7.33
2018-06-18T06:16:09.470Z,7.40
2018-06-18T06:18:36.394Z,8.13
2018-06-18T06:21:06.192Z,7.37
2018-06-18T06:23:33.114Z,7.40
2018-06-18T06:26:00.040Z,7.70
2018-06-18T06:28:26.981Z,7.80
2018-06-18T06:30:54.142Z,7.87
2018-06-18T06:33:22.250Z,7.50
2018-06-18T06:35:49.186Z,7.23
2018-06-18T06:38:16.109Z,7.27
2018-06-18T06:40:43.522Z,6.43
2018-06-18T06:43:10.668Z,7.27
2018-06-18T06:45:37.597Z,6.67
2018-06-18T06:48:04.593Z,6.40
2018-06-18T06:50:31.529Z,6.03
2018-06-18T06:52:58.569Z,6.40
2018-06-18T06:55:25.496Z,6.50
2018-06-18T06:57:52.434Z,6.63
2018-06-18T07:00:19.362Z,6.83
2018-06-18T07:02:46.279Z,6.67
2018-06-18T07:05:13.209Z,6.53
2018-06-18T07:07:40.145Z,6.13
2018-06-18T07:10:07.255Z,6.50
2018-06-18T07:12:34.177Z,7.07
2018-06-18T07:15:01.108Z,6.57
2018-06-18T07:17:28.054Z,6.00
2018-06-18T07:19:54.972Z,6.20
2018-06-18T07:22:21.889Z,7.07
2018-06-18T07:24:48.818Z,6.40
2018-06-18T07:27:15.773Z,6.53
2018-06-18T07:29:42.721Z,6.37
2018-06-18T07:32:09.658Z,6.50
2018-06-18T07:34:36.585Z,5.77
2018-06-18T07:37:03.522Z,5.20
2018-06-18T07:39:30.485Z,4.97
2018-06-18T07:41:57.414Z,5.00
2018-06-18T07:44:24.334Z,5.60
2018-06-18T07:46:51.269Z,4.77
2018-06-18T07:49:18.193Z,5.53
2018-06-18T07:51:45.300Z,5.50
2018-06-18T07:54:12.069Z,5.00
2018-06-18T07:56:38.992Z,4.70
2018-06-18T07:59:05.923Z,5.40
2018-06-18T08:01:32.861Z,4.33
2018-06-18T08:03:59.803Z,4.53
2018-06-18T08:06:27.018Z,4.53
2018-06-18T08:08:53.980Z,4.20
2018-06-18T08:11:20.928Z,5.17
2018-06-18T08:13:47.835Z,5.37
2018-06-18T08:16:14.824Z,4.50
2018-06-18T08:18:41.793Z,4.90
2018-06-18T08:21:08.737Z,4.90
2018-06-18T08:23:35.657Z,4.60
2018-06-18T08:26:02.597Z,5.07
2018-06-18T08:28:29.521Z,4.80
2018-06-18T08:30:56.456Z,5.20
2018-06-18T08:33:23.377Z,5.40
2018-06-18T08:35:50.311Z,5.90
2018-06-18T08:38:17.248Z,5.13
2018-06-18T08:40:44.189Z,5.77
2018-06-18T08:43:11.115Z,6.17
2018-06-18T08:45:38.054Z,5.23
2018-06-18T08:48:04.996Z,5.73
2018-06-18T08:50:37.732Z,4.80
2018-06-18T08:53:10.359Z,4.50
2018-06-18T08:55:43.117Z,4.30
2018-06-18T08:58:15.744Z,4.40
2018-06-18T09:00:48.512Z,4.30
2018-06-18T09:03:21.177Z,4.10
2018-06-18T09:05:48.251Z,5.20
2018-06-18T09:08:21.049Z,4.23
2018-06-18T09:10:47.960Z,4.80
2018-06-18T09:13:14.897Z,4.60
2018-06-18T09:15:41.820Z,4.30
2018-06-18T09:18:08.763Z,5.03
2018-06-18T09:20:35.689Z,4.90
2018-06-18T09:23:02.657Z,5.20
2018-06-18T09:25:29.589Z,4.77
2018-06-18T09:27:56.523Z,5.07
2018-06-18T09:30:23.470Z,4.63
2018-06-18T09:32:50.413Z,5.03
2018-06-18T09:35:17.366Z,4.73
2018-06-18T09:37:44.297Z,5.13
2018-06-18T09:40:11.233Z,5.23
2018-06-18T09:42:38.165Z,5.43
2018-06-18T09:45:05.101Z,4.90
2018-06-18T09:47:32.030Z,5.43
2018-06-18T09:50:04.644Z,6.40
2018-06-18T09:52:37.357Z,5.53
2018-06-18T09:55:10.033Z,5.97
2018-06-18T09:57:42.765Z,5.57
2018-06-18T10:00:21.441Z,6.77
2018-06-18T10:02:48.386Z,7.33
2018-06-18T10:05:19.906Z,7.00
2018-06-18T10:07:46.845Z,8.00
2018-06-18T10:10:13.775Z,8.83
2018-06-18T10:12:40.696Z,9.40
2018-06-18T10:15:07.625Z,8.47
2018-06-18T10:17:34.549Z,7.90
2018-06-18T10:20:01.490Z,9.13
2018-06-18T10:22:28.421Z,9.67
2018-06-18T10:24:55.352Z,10.13
2018-06-18T10:27:22.286Z,10.17
2018-06-18T10:29:49.212Z,10.37
2018-06-18T10:32:21.880Z,10.43
2018-06-18T10:34:54.578Z,10.30
2018-06-18T10:37:27.361Z,9.70
2018-06-18T10:40:00.057Z,9.43
2018-06-18T10:42:32.722Z,8.50
2018-06-18T10:44:59.682Z,9.07
2018-06-18T10:47:26.601Z,8.40
2018-06-18T10:49:53.843Z,8.73
2018-06-18T10:52:20.788Z,7.87
2018-06-18T10:54:47.721Z,8.03
2018-06-18T10:57:14.634Z,8.07
2018-06-18T10:59:41.569Z,8.00
2018-06-18T11:02:08.511Z,8.60
2018-06-18T11:04:35.438Z,8.70
2018-06-18T11:07:02.350Z,8.00
2018-06-18T11:09:29.289Z,8.33
2018-06-18T11:11:56.213Z,8.00
2018-06-18T11:14:23.138Z,8.03
2018-06-18T11:16:55.891Z,8.67
2018-06-18T11:19:28.505Z,8.93
2018-06-18T11:22:01.236Z,8.90
2018-06-18T11:24:34.038Z,9.20
2018-06-18T11:27:00.970Z,8.93
2018-06-18T11:29:27.918Z,9.50
2018-06-18T11:31:54.850Z,9.47
2018-06-18T11:34:21.805Z,10.40
2018-06-18T11:36:48.804Z,9.77
2018-06-18T11:39:15.769Z,8.73
2018-06-18T11:41:42.683Z,10.40
2018-06-18T11:44:09.613Z,10.33
2018-06-18T11:46:36.541Z,8.67
2018-06-18T11:49:03.525Z,9.60
2018-06-18T11:51:30.479Z,9.73
2018-06-18T11:53:57.396Z,9.93
2018-06-18T11:56:24.366Z,10.37
2018-06-18T11:58:56.986Z,10.97
2018-06-18T12:01:29.717Z,11.33
2018-06-18T12:04:02.396Z,10.87
2018-06-18T12:06:35.132Z,11.00
2018-06-18T12:09:07.853Z,11.27
2018-06-18T12:11:34.806Z,10.63
2018-06-18T12:14:01.797Z,11.23
2018-06-18T12:16:33.305Z,11.67
2018-06-18T12:19:00.266Z,11.13
2018-06-18T12:21:27.191Z,11.03
2018-06-18T12:23:54.129Z,11.00
2018-06-18T12:26:21.083Z,11.13
2018-06-18T12:28:47.989Z,11.23
2018-06-18T12:31:14.925Z,11.13
2018-06-18T12:33:41.838Z,11.37
2018-06-18T12:36:09.091Z,11.50
2018-06-18T12:38:36.013Z,11.03
2018-06-18T12:41:03.025Z,11.43
2018-06-18T12:43:33.448Z,11.40
2018-06-18T12:46:06.038Z,11.07
2018-06-18T12:48:38.725Z,11.00
2018-06-18T12:51:11.299Z,10.77
2018-06-18T12:53:43.987Z,10.50
2018-06-18T12:56:16.641Z,10.43
2018-06-18T12:58:43.561Z,10.30
2018-06-18T13:01:12.311Z,9.03
2018-06-18T13:03:39.233Z,8.83
2018-06-18T13:06:06.174Z,9.00
2018-06-18T13:08:33.104Z,8.77
2018-06-18T13:11:00.034Z,9.47
2018-06-18T13:13:26.964Z,9.33
2018-06-18T13:15:53.896Z,8.77
2018-06-18T13:18:20.855Z,8.30
2018-06-18T13:20:47.778Z,7.50
2018-06-18T13:23:14.699Z,8.50
2018-06-18T13:25:41.613Z,7.93
2018-06-18T13:28:14.436Z,7.83
2018-06-18T13:30:41.381Z,9.07
2018-06-18T13:33:08.308Z,8.50
2018-06-18T13:35:35.233Z,8.53
2018-06-18T13:38:07.842Z,8.80
2018-06-18T13:40:40.509Z,9.80
2018-06-18T13:43:13.330Z,10.53
2018-06-18T13:45:42.789Z,10.13
2018-06-18T13:48:15.641Z,9.97
2018-06-18T13:50:42.579Z,9.37
2018-06-18T13:53:09.544Z,10.43
2018-06-18T13:55:36.469Z,10.30
2018-06-18T13:58:03.414Z,11.93
2018-06-18T14:00:30.336Z,13.30
2018-06-18T14:02:57.267Z,13.80
2018-06-18T14:05:24.185Z,14.30
2018-06-18T14:07:51.125Z,14.20
2018-06-18T14:10:18.058Z,13.87
2018-06-18T14:12:44.993Z,12.80
2018-06-18T14:15:11.921Z,14.43
2018-06-18T14:17:38.850Z,13.17
2018-06-18T14:20:11.539Z,12.97
2018-06-18T14:22:38.469Z,13.80
2018-06-18T14:25:05.416Z,13.67
2018-06-18T14:27:32.350Z,13.63
2018-06-18T14:30:04.936Z,14.83
2018-06-18T14:32:37.637Z,14.30
2018-06-18T14:35:10.392Z,13.23
2018-06-18T14:37:43.054Z,13.23
2018-06-18T14:40:13.632Z,12.20
2018-06-18T14:42:40.626Z,12.67
2018-06-18T14:45:07.503Z,11.57
2018-06-18T14:47:34.480Z,13.37
2018-06-18T14:50:01.397Z,12.07
2018-06-18T14:52:28.600Z,14.10
2018-06-18T14:54:55.493Z,13.80
2018-06-18T14:57:22.597Z,12.90
2018-06-18T14:59:52.204Z,12.73
2018-06-18T15:02:19.113Z,12.90
2018-06-18T15:04:46.038Z,12.70
2018-06-18T15:07:12.986Z,12.90
2018-06-18T15:09:39.940Z,12.33
2018-06-18T15:12:07.473Z,11.53
2018-06-18T15:14:34.424Z,11.37
2018-06-18T15:17:01.338Z,11.60
2018-06-18T15:19:28.268Z,11.10
2018-06-18T15:21:56.897Z,10.80
2018-06-18T15:24:33.349Z,11.50
2018-06-18T15:27:00.343Z,10.00
2018-06-18T15:29:27.214Z,10.20
2018-06-18T15:31:54.143Z,10.70
2018-06-18T15:34:21.094Z,10.90
2018-06-18T15:36:48.022Z,10.30
2018-06-18T15:39:14.964Z,10.23
2018-06-18T15:41:41.904Z,10.00
2018-06-18T15:44:09.028Z,10.57
2018-06-18T15:46:36.013Z,11.30
2018-06-18T15:49:02.961Z,11.33
2018-06-18T15:51:29.893Z,11.27
2018-06-18T15:53:56.878Z,11.20
2018-06-18T15:56:23.864Z,11.93
2018-06-18T15:58:50.767Z,12.97
2018-06-18T16:01:17.710Z,12.10
2018-06-18T16:03:44.661Z,12.77
2018-06-18T16:06:11.597Z,14.10
2018-06-18T16:08:38.529Z,12.50
2018-06-18T16:11:05.489Z,13.53
2018-06-18T16:13:32.488Z,15.70
2018-06-18T16:15:59.406Z,14.93
2018-06-18T16:18:26.335Z,15.20
2018-06-18T16:20:53.245Z,15.17
2018-06-18T16:23:20.198Z,11.70
2018-06-18T16:25:47.142Z,11.67
2018-06-18T16:28:14.090Z,11.23
2018-06-18T16:30:41.037Z,12.67
2018-06-18T16:33:07.976Z,10.13
2018-06-18T16:35:34.941Z,10.03
2018-06-18T16:38:01.859Z,10.03
2018-06-18T16:40:28.809Z,8.53
2018-06-18T16:42:55.741Z,8.17
2018-06-18T16:45:22.693Z,6.40
2018-06-18T16:47:49.613Z,9.03
2018-06-18T16:50:16.538Z,8.33
2018-06-18T16:52:43.462Z,8.43
2018-06-18T16:55:10.425Z,7.63
2018-06-18T16:57:37.369Z,7.77
2018-06-18T17:00:04.470Z,6.83
2018-06-18T17:02:31.409Z,6.93
2018-06-18T17:04:58.349Z,6.70
2018-06-18T17:07:25.266Z,7.87
2018-06-18T17:09:52.215Z,7.33
2018-06-18T17:12:19.169Z,6.63
2018-06-18T17:14:46.168Z,7.93
2018-06-18T17:17:13.116Z,6.57
2018-06-18T17:19:40.045Z,7.20
2018-06-18T17:22:07.082Z,7.00
2018-06-18T17:24:34.102Z,6.87
2018-06-18T17:27:01.100Z,8.43
2018-06-18T17:29:28.033Z,7.17
2018-06-18T17:31:55.065Z,7.80
2018-06-18T17:34:22.009Z,9.23
2018-06-18T17:36:48.958Z,9.80
2018-06-18T17:39:15.892Z,9.43
2018-06-18T17:41:49.674Z,8.37
2018-06-18T17:44:16.618Z,8.37
2018-06-18T17:46:43.640Z,9.53
2018-06-18T17:49:10.603Z,8.57
2018-06-18T17:51:37.882Z,9.90
2018-06-18T17:54:04.901Z,11.30
2018-06-18T17:56:31.845Z,9.53
2018-06-18T17:58:58.765Z,10.67
2018-06-18T18:01:25.761Z,10.37
2018-06-18T18:03:52.740Z,10.50
2018-06-18T18:06:19.690Z,11.63
2018-06-18T18:08:46.822Z,9.53
2018-06-18T18:11:13.786Z,10.87
2018-06-18T18:13:40.724Z,10.80
2018-06-18T18:16:07.656Z,11.10
2018-06-18T18:18:34.561Z,10.03
2018-06-18T18:21:01.495Z,10.30
2018-06-18T18:23:28.432Z,10.43
2018-06-18T18:25:55.376Z,10.27
2018-06-18T18:28:22.633Z,9.83
2018-06-18T18:30:49.718Z,9.80
2018-06-18T18:33:16.687Z,10.77
2018-06-18T18:35:44.654Z,11.27
2018-06-18T18:38:11.596Z,11.27
2018-06-18T18:40:38.754Z,13.47
2018-06-18T18:43:07.753Z,14.53
2018-06-18T18:45:34.858Z,12.93
2018-06-18T18:48:01.701Z,14.90
2018-06-18T18:50:28.629Z,13.70
2018-06-18T18:52:55.587Z,12.20
2018-06-18T18:55:36.535Z,12.97
2018-06-18T18:58:16.565Z,12.80
2018-06-18T19:00:44.767Z,13.83
2018-06-18T19:03:11.836Z,13.40
2018-06-18T19:05:38.809Z,13.27
2018-06-18T19:08:06.361Z,16.23
2018-06-18T19:10:35.388Z,15.87
2018-06-18T19:13:05.005Z,15.90
2018-06-18T19:15:31.936Z,17.80
2018-06-18T19:17:58.877Z,15.93
2018-06-18T19:20:33.198Z,12.53
2018-06-18T19:23:01.864Z,12.80
2018-06-18T19:25:28.798Z,13.20
2018-06-18T19:27:55.741Z,12.50
2018-06-18T19:30:22.744Z,10.07
2018-06-18T19:32:51.410Z,12.00
2018-06-18T19:35:18.345Z,9.37
2018-06-18T19:37:45.274Z,9.23
2018-06-18T19:40:12.193Z,8.37
2018-06-18T19:42:39.138Z,9.97
2018-06-18T19:45:08.857Z,8.27
2018-06-18T19:47:40.774Z,10.20
2018-06-18T19:50:07.713Z,9.47
2018-06-18T19:52:34.660Z,9.23
2018-06-18T19:55:34.262Z,10.03
2018-06-18T19:58:01.236Z,11.13
2018-06-18T20:00:35.776Z,9.97
2018-06-18T20:03:02.701Z,9.30
2018-06-18T20:05:29.633Z,8.90
2018-06-18T20:07:59.553Z,10.20
2018-06-18T20:10:26.532Z,10.60
2018-06-18T20:12:53.853Z,11.07
2018-06-18T20:15:20.785Z,11.47
2018-06-18T20:17:47.740Z,10.53
2018-06-18T20:20:15.171Z,10.00
2018-06-18T20:22:42.158Z,12.17
2018-06-18T20:25:09.108Z,10.00
2018-06-18T20:27:36.042Z,10.97
2018-06-18T20:30:05.494Z,10.37
2018-06-18T20:32:32.434Z,9.63
2018-06-18T20:34:59.382Z,12.17
2018-06-18T20:37:26.313Z,11.47
2018-06-18T20:39:53.693Z,12.23
2018-06-18T20:42:20.606Z,11.50
2018-06-18T20:44:47.551Z,11.43
2018-06-18T20:47:14.503Z,13.20
2018-06-18T20:49:41.416Z,13.33
2018-06-18T20:52:08.384Z,13.77
2018-06-18T20:54:35.333Z,13.73
2018-06-18T20:57:02.328Z,14.97
2018-06-18T20:59:29.198Z,14.03
2018-06-18T21:01:56.137Z,15.20
2018-06-18T21:04:23.059Z,14.97
2018-06-18T21:06:49.997Z,16.33
2018-06-18T21:09:16.916Z,16.20
2018-06-18T21:11:43.862Z,15.50
2018-06-18T21:14:11.053Z,15.77
2018-06-18T21:16:40.335Z,16.60
2018-06-18T21:19:07.332Z,17.20
2018-06-18T21:21:34.202Z,17.07
2018-06-18T21:24:01.131Z,16.67
2018-06-18T21:26:28.062Z,17.50
2018-06-18T21:28:54.980Z,17.43
2018-06-18T21:31:22.160Z,16.57
2018-06-18T21:33:49.065Z,17.50
2018-06-18T21:36:15.985Z,16.63
2018-06-18T21:38:42.911Z,19.17
2018-06-18T21:41:09.839Z,17.90
2018-06-18T21:43:36.756Z,18.30
2018-06-18T21:46:04.200Z,19.20
2018-06-18T21:48:31.129Z,16.67
2018-06-18T21:50:58.056Z,17.03
2018-06-18T21:53:24.996Z,17.63
2018-06-18T21:55:51.942Z,19.43
2018-06-18T21:58:18.871Z,20.03
2018-06-18T22:00:48.035Z,19.20
2018-06-18T22:03:15.029Z,22.40
2018-06-18T22:05:41.966Z,19.13
2018-06-18T22:08:11.239Z,20.53
2018-06-18T22:10:38.533Z,21.00
2018-06-18T22:13:05.518Z,21.30
2018-06-18T22:15:32.510Z,21.50
2018-06-18T22:17:59.485Z,21.60
2018-06-18T22:20:26.441Z,18.87
2018-06-18T22:22:53.449Z,18.90
2018-06-18T22:25:20.385Z,20.07
2018-06-18T22:27:48.274Z,19.43
2018-06-18T22:30:15.301Z,18.53
2018-06-18T22:32:42.217Z,19.37
2018-06-18T22:35:09.170Z,18.90
2018-06-18T22:37:36.108Z,17.87
2018-06-18T22:40:04.146Z,18.10
2018-06-18T22:42:31.285Z,17.47
2018-06-18T22:44:59.800Z,17.17
2018-06-18T22:47:26.728Z,17.33
2018-06-18T22:49:53.661Z,16.40
2018-06-18T22:52:20.605Z,16.80
2018-06-18T22:54:48.581Z,13.80
2018-06-18T22:57:16.461Z,14.23
2018-06-18T22:59:43.794Z,12.50
2018-06-18T23:02:11.737Z,15.37
2018-06-18T23:04:38.705Z,14.47
2018-06-18T23:07:06.400Z,12.67
2018-06-18T23:09:34.032Z,13.13
2018-06-18T23:12:00.978Z,14.73
2018-06-18T23:14:27.941Z,13.63
2018-06-18T23:16:54.920Z,12.60
2018-06-18T23:19:21.884Z,12.87
2018-06-18T23:21:48.817Z,13.63
2018-06-18T23:24:15.737Z,12.47
2018-06-18T23:26:42.694Z,13.33
2018-06-18T23:29:11.731Z,13.90
2018-06-18T23:31:38.701Z,12.53
2018-06-18T23:34:05.641Z,13.30
2018-06-18T23:36:32.586Z,12.37
2018-06-18T23:38:59.560Z,14.17
2018-06-18T23:41:28.105Z,13.43
2018-06-18T23:43:55.049Z,13.77
2018-06-18T23:46:21.996Z,13.30
2018-06-18T23:48:48.940Z,12.97
2018-06-18T23:51:15.978Z,13.30
2018-06-18T23:53:42.938Z,14.20
2018-06-18T23:56:09.909Z,14.43
2018-06-18T23:58:36.845Z,12.97
